Terminal Aerodrome Forecast
Issued by NWS

Current Version | Previous Version | Text Only | Print | Product List | Glossary On
Versions: 1 2 3 4 5 6 7 8 9 10 11 12 13 14 15 16 17 18 19 20 21 22 23 24 25 26 27 28
000
FTUS46 KSEW 271600 AAC
TAFHQM
TAF AMD
KHQM 271601Z 2716/2812 15005KT 1/2SM FG VV002
     FM271730 10008KT 4SM BR BKN005 BKN070 OVC120
     FM272000 21009KT P6SM VCSH BKN030 OVC060
      TEMPO 2720/2724 -RA OVC025
     FM280200 20010KT P6SM -RA SCT010 OVC020=

USA.gov is the U.S. government's official web portal to all federal, state and local government web resources and services.